Montrose, AL (36559)

12:06 AM CST on March 06, 2015 (GMT -0600)
APRSWXNET Montrose AL US | Change Station
CLOSE
Current Station
Personal Weather Station
Location: Montrose, AL
Elevation: 9 ft
Nearby Weather Stations
Active Advisory: Freeze Warning

Elev 9 ft 30.56 °N, 87.90 °W | Updated 41 minutes ago

Partly Cloudy
Partly Cloudy
35 °F
Feels Like 25 °F
N
15
Wind Variable Wind from NE
Gusts 22.0 mph

Today
High -- | Low -- °F
--% Chance of Precip.
Yesterday
High -- | Low -- °F
Precip. -- in
6:12 AM 5:53 PM
Full, 100% visible
Pressure 30.37 in
Visibility 10.0 miles
Clouds Clear
Windchill 25 °F
Dew Point 31 °F
Humidity 84%
Rainfall in
Snow Depth Not available.
UV 0 out of 12
Pollen 4.90 out of 12
Air Quality Not available.
Flu Activity Not available.
METAR KCQF 060555Z AUTO 35014G20KT 10SM CLR 00/M03 A3037 RMK AO2

More Conditions Fewer Conditions

Pressure 30.37 in
Visibility 10.0 miles
Clouds Clear
Windchill 25 °F
Dew Point 31 °F
Humidity 84%
Rainfall in
Snow Depth Not available.
UV 0 out of 12
Pollen 4.90 out of 12
Air Quality Not available.
Flu Activity Not available.
METAR KCQF 060555Z AUTO 35014G20KT 10SM CLR 00/M03 A3037 RMK AO2

More Conditions Fewer Conditions

10-Day Weather Forecast

Almanac

Astronomy

Mar. 06, 2015 Rise Set
Actual Time
Civil Twilight
Nautical Twilight
Astronomical Twilight
Moon
Length of Visible Light
Length of Day
Tomorrow will be .
, % of the Moon is Illuminated

Today's Extremes

State Highs State Lows

Community

WunderPhotos

Upload Photos

1,803,194 photos uploaded!

WunderBlogs® & News

Nearby

Air Quality

  Air Quality AQ Index Pollutant
Not available.

Snow Depth

Station Depth Elevation

Earthquake Activity

City Distance Mag. Time & Date
Minimum magnitude displayed is 2.5.

Coastal Water Temperatures

Place Temperature

Nearby Weather Stations

Freeze Warning
Statement as of 10:14 PM CST on March 05, 2015

... Freeze warning remains in effect until 9 am CST Friday...
... Wind Advisory has expired...

* temperature... lows will drop into mid to upper 20s west of
Interstate 65 and into the upper 20s to lower 30s further east.

* Impacts... the freezing temperatures could harm sensitive
vegetation and any new growth given the recent mild temperatures.

Precautionary/preparedness actions...

A freeze warning means sub-freezing temperatures are imminent or
highly likely. These conditions will damage or kill crops... new
growth... and other sensitive vegetation.